createdAt,value
2022-10-02T00:00:44.853Z,27.32
2022-10-02T00:03:20.102Z,27.43
2022-10-02T00:05:57.231Z,27.13
2022-10-02T00:08:34.144Z,27.13
2022-10-02T00:11:21.818Z,27.44
2022-10-02T00:13:53.396Z,26.41
2022-10-02T00:16:34.628Z,27.25
2022-10-02T00:19:06.034Z,27.77
2022-10-02T00:22:09.504Z,27.85
2022-10-02T00:25:06.785Z,26.66
2022-10-02T00:27:43.740Z,28.13
2022-10-02T00:30:16.881Z,28.23
2022-10-02T00:32:58.092Z,26.48
2022-10-02T00:35:48.631Z,27.69
2022-10-02T00:38:45.613Z,28.09
2022-10-02T00:41:33.366Z,27.93
2022-10-02T00:44:21.198Z,28.04
2022-10-02T00:47:11.093Z,28.31
2022-10-02T00:49:55.697Z,28.71
2022-10-02T00:52:48.767Z,28.76
2022-10-02T00:55:47.063Z,28.48
2022-10-02T00:58:34.860Z,28.78
2022-10-02T01:01:29.576Z,29.00
2022-10-02T01:04:01.119Z,28.74
2022-10-02T01:06:32.518Z,28.44
2022-10-02T01:09:02.985Z,28.11
2022-10-02T01:11:33.186Z,28.01
2022-10-02T01:14:02.959Z,27.56
2022-10-02T01:16:34.456Z,27.11
2022-10-02T01:19:04.795Z,26.71
2022-10-02T01:21:44.080Z,26.29
2022-10-02T01:24:31.245Z,25.95
2022-10-02T01:27:00.837Z,25.59
2022-10-02T01:29:30.659Z,25.26
2022-10-02T01:31:59.876Z,25.00
2022-10-02T01:34:29.549Z,24.86
2022-10-02T01:36:59.310Z,24.66
2022-10-02T01:39:29.326Z,24.40
2022-10-02T01:41:58.912Z,24.31
2022-10-02T01:44:28.446Z,24.15
2022-10-02T01:47:09.497Z,23.90
2022-10-02T01:50:06.651Z,23.74
2022-10-02T01:52:54.754Z,23.55
2022-10-02T01:56:28.992Z,23.26
2022-10-02T01:59:34.775Z,23.10
2022-10-02T02:02:41.363Z,22.89
2022-10-02T02:05:11.548Z,22.75
2022-10-02T02:07:59.596Z,22.68
2022-10-02T02:11:04.712Z,22.49
2022-10-02T02:13:33.927Z,22.37
2022-10-02T02:16:34.103Z,22.19
2022-10-02T02:19:26.116Z,22.07
2022-10-02T02:22:05.414Z,21.87
2022-10-02T02:25:01.612Z,21.70
2022-10-02T02:27:37.056Z,21.62
2022-10-02T02:30:13.248Z,21.47
2022-10-02T02:32:51.914Z,21.41
2022-10-02T02:35:43.122Z,21.29
2022-10-02T02:38:46.079Z,21.29
2022-10-02T02:41:27.968Z,21.19
2022-10-02T02:44:07.569Z,20.98
2022-10-02T02:47:17.577Z,20.94
2022-10-02T02:50:11.656Z,20.84
2022-10-02T02:52:50.623Z,20.92
2022-10-02T02:55:21.374Z,20.89
2022-10-02T02:58:19.845Z,20.74
2022-10-02T03:00:49.224Z,20.65
2022-10-02T03:03:19.236Z,20.46
2022-10-02T03:06:08.831Z,20.35
2022-10-02T03:08:38.993Z,20.14
2022-10-02T03:11:36.943Z,19.93
2022-10-02T03:14:13.896Z,19.57
2022-10-02T03:17:13.366Z,19.92
2022-10-02T03:19:52.345Z,20.02
2022-10-02T03:22:45.100Z,20.15
2022-10-02T03:25:30.655Z,20.07
2022-10-02T03:28:12.827Z,19.93
2022-10-02T03:30:43.719Z,19.82
2022-10-02T03:33:16.248Z,19.71
2022-10-02T03:35:46.427Z,19.60
2022-10-02T03:38:16.517Z,19.55
2022-10-02T03:40:45.716Z,19.47
2022-10-02T03:43:25.550Z,19.37
2022-10-02T03:45:54.718Z,19.31
2022-10-02T03:48:24.550Z,19.33
2022-10-02T03:50:53.831Z,19.38
2022-10-02T03:53:26.807Z,19.30
2022-10-02T03:56:04.167Z,19.25
2022-10-02T03:58:34.796Z,19.16
2022-10-02T04:01:20.863Z,19.06
2022-10-02T04:04:22.701Z,19.05
2022-10-02T04:07:04.015Z,18.99
2022-10-02T04:09:43.924Z,18.92
2022-10-02T04:12:39.892Z,18.86
2022-10-02T04:15:34.883Z,18.90
2022-10-02T04:18:23.145Z,18.79
2022-10-02T04:21:04.648Z,18.61
2022-10-02T04:23:56.757Z,18.57
2022-10-02T04:26:36.829Z,18.41
2022-10-02T04:29:27.089Z,18.40
2022-10-02T04:32:14.443Z,18.39
2022-10-02T04:34:44.072Z,18.31
2022-10-02T04:37:32.774Z,18.27
2022-10-02T04:40:17.369Z,18.24
2022-10-02T04:43:01.875Z,18.19
2022-10-02T04:45:38.240Z,18.16
2022-10-02T04:48:10.901Z,18.10
2022-10-02T04:51:01.059Z,18.13
2022-10-02T04:53:48.045Z,18.04
2022-10-02T04:56:16.818Z,18.03
2022-10-02T04:58:48.662Z,17.96
2022-10-02T05:01:36.479Z,17.85
2022-10-02T05:04:21.539Z,17.76
2022-10-02T05:07:24.214Z,17.65
2022-10-02T05:10:29.289Z,17.62
2022-10-02T05:13:35.602Z,17.62
2022-10-02T05:16:34.645Z,17.57
2022-10-02T05:19:21.714Z,17.49
2022-10-02T05:22:15.780Z,17.46
2022-10-02T05:25:03.250Z,17.43
2022-10-02T05:27:53.158Z,17.34
2022-10-02T05:30:22.634Z,17.34
2022-10-02T05:33:18.972Z,17.31
2022-10-02T05:36:00.939Z,17.27
2022-10-02T05:38:44.996Z,17.20
2022-10-02T05:41:27.376Z,17.14
2022-10-02T05:44:06.645Z,17.20
2022-10-02T05:46:54.319Z,17.18
2022-10-02T05:49:38.100Z,17.10
2022-10-02T05:52:14.878Z,17.08
2022-10-02T05:55:14.717Z,17.06
2022-10-02T05:57:48.319Z,16.86
2022-10-02T06:00:47.348Z,16.71
2022-10-02T06:03:40.925Z,16.89
2022-10-02T06:06:48.609Z,16.86
2022-10-02T06:09:36.574Z,16.81
2022-10-02T06:12:32.199Z,16.78
2022-10-02T06:15:09.221Z,16.74
2022-10-02T06:17:43.723Z,16.67
2022-10-02T06:20:25.349Z,16.60
2022-10-02T06:23:06.925Z,16.53
2022-10-02T06:25:47.212Z,16.49
2022-10-02T06:28:31.707Z,16.44
2022-10-02T06:31:10.678Z,16.30
2022-10-02T06:33:40.311Z,16.32
2022-10-02T06:36:22.266Z,16.21
2022-10-02T06:39:32.195Z,16.16
2022-10-02T06:42:24.533Z,16.19
2022-10-02T06:45:06.977Z,16.17
2022-10-02T06:47:39.228Z,16.14
2022-10-02T06:50:33.104Z,16.08
2022-10-02T06:53:25.735Z,16.07
2022-10-02T06:56:21.148Z,16.02
2022-10-02T06:58:59.629Z,16.00
2022-10-02T07:01:57.397Z,15.99
2022-10-02T07:04:49.963Z,15.96
2022-10-02T07:07:28.663Z,15.90
2022-10-02T07:10:23.701Z,15.77
2022-10-02T07:13:13.295Z,15.71
2022-10-02T07:16:10.189Z,15.67
2022-10-02T07:19:15.394Z,15.63
2022-10-02T07:21:56.237Z,15.62
2022-10-02T07:24:45.618Z,15.54
2022-10-02T07:27:18.907Z,15.49
2022-10-02T07:30:07.420Z,15.48
2022-10-02T07:33:19.308Z,15.44
2022-10-02T07:36:06.716Z,15.40
2022-10-02T07:39:12.250Z,15.39
2022-10-02T07:41:59.488Z,15.35
2022-10-02T07:44:51.786Z,15.30
2022-10-02T07:47:50.066Z,15.28
2022-10-02T07:50:30.964Z,15.30
2022-10-02T07:53:07.773Z,15.20
2022-10-02T07:55:42.504Z,15.18
2022-10-02T07:58:17.137Z,15.18
2022-10-02T08:01:03.893Z,15.14
2022-10-02T08:04:05.032Z,15.16
2022-10-02T08:06:35.408Z,15.07
2022-10-02T08:09:10.013Z,15.03
2022-10-02T08:11:49.650Z,15.00
2022-10-02T08:14:40.703Z,14.98
2022-10-02T08:17:32.566Z,14.94
2022-10-02T08:20:16.894Z,14.92
2022-10-02T08:22:53.472Z,14.90
2022-10-02T08:25:26.105Z,14.83
2022-10-02T08:27:55.219Z,14.83
2022-10-02T08:30:24.356Z,14.83
2022-10-02T08:32:55.213Z,14.82
2022-10-02T08:35:46.915Z,14.78
2022-10-02T08:38:41.099Z,14.73
2022-10-02T08:41:57.169Z,14.70
2022-10-02T08:44:50.927Z,14.65
2022-10-02T08:47:28.476Z,14.65
2022-10-02T08:50:06.293Z,14.64
2022-10-02T08:52:57.478Z,14.60
2022-10-02T08:56:06.472Z,14.56
2022-10-02T08:59:23.191Z,14.52
2022-10-02T09:02:00.073Z,14.50
2022-10-02T09:04:36.850Z,14.45
2022-10-02T09:07:48.269Z,14.44
2022-10-02T09:10:54.275Z,14.47
2022-10-02T09:13:45.578Z,14.41
2022-10-02T09:16:44.186Z,14.38
2022-10-02T09:19:25.318Z,14.37
2022-10-02T09:22:00.271Z,14.28
2022-10-02T09:25:06.828Z,14.23
2022-10-02T09:28:22.328Z,14.22
2022-10-02T09:30:51.719Z,14.16
2022-10-02T09:33:46.643Z,14.09
2022-10-02T09:36:35.925Z,14.15
2022-10-02T09:39:27.465Z,14.14
2022-10-02T09:42:30.742Z,14.05
2022-10-02T09:45:29.465Z,14.10
2022-10-02T09:48:20.053Z,14.08
2022-10-02T09:51:15.027Z,13.86
2022-10-02T09:54:14.401Z,13.72
2022-10-02T09:57:25.589Z,13.94
2022-10-02T10:00:21.889Z,13.93
2022-10-02T10:03:15.531Z,13.87
2022-10-02T10:05:57.567Z,13.85
2022-10-02T10:08:59.527Z,13.85
2022-10-02T10:11:31.974Z,13.77
2022-10-02T10:14:10.000Z,13.76
2022-10-02T10:17:17.072Z,13.75
2022-10-02T10:20:00.098Z,13.29
2022-10-02T10:22:41.174Z,13.15
2022-10-02T10:25:45.267Z,13.52
2022-10-02T10:28:51.004Z,13.27
2022-10-02T10:31:38.475Z,13.41
2022-10-02T10:34:40.762Z,13.56
2022-10-02T10:37:58.852Z,13.56
2022-10-02T10:40:58.902Z,13.55
2022-10-02T10:44:01.724Z,13.48
2022-10-02T10:47:00.726Z,13.50
2022-10-02T10:49:39.490Z,13.51
2022-10-02T10:52:17.498Z,13.42
2022-10-02T10:55:08.116Z,13.38
2022-10-02T10:57:58.248Z,13.41
2022-10-02T11:00:33.681Z,13.36
2022-10-02T11:03:59.168Z,13.39
2022-10-02T11:06:57.149Z,13.34
2022-10-02T11:10:08.598Z,13.31
2022-10-02T11:13:10.450Z,13.23
2022-10-02T11:16:21.240Z,13.22
2022-10-02T11:19:11.866Z,13.21
2022-10-02T11:22:14.771Z,13.17
2022-10-02T11:25:22.707Z,13.27
2022-10-02T11:28:01.186Z,13.33
2022-10-02T11:31:07.491Z,13.26
2022-10-02T11:33:51.355Z,13.24
2022-10-02T11:36:46.438Z,13.19
2022-10-02T11:40:06.522Z,13.15
2022-10-02T11:43:25.718Z,13.06
2022-10-02T11:46:10.065Z,13.07
2022-10-02T11:49:20.662Z,13.08
2022-10-02T11:52:09.671Z,12.97
2022-10-02T11:54:57.280Z,12.92
2022-10-02T11:57:42.301Z,12.93
2022-10-02T12:00:46.254Z,12.92
2022-10-02T12:03:24.243Z,12.89
2022-10-02T12:05:59.271Z,12.81
2022-10-02T12:08:55.732Z,12.85
2022-10-02T12:11:35.289Z,12.91
2022-10-02T12:14:43.658Z,12.85
2022-10-02T12:17:25.960Z,12.86
2022-10-02T12:20:50.448Z,12.85
2022-10-02T12:23:47.300Z,12.85
2022-10-02T12:27:04.555Z,12.85
2022-10-02T12:29:41.373Z,12.81
2022-10-02T12:32:16.359Z,12.79
2022-10-02T12:34:49.386Z,12.80
2022-10-02T12:37:34.061Z,12.78
2022-10-02T12:40:22.900Z,12.74
2022-10-02T12:43:01.174Z,12.72
2022-10-02T12:45:36.495Z,12.75
2022-10-02T12:48:34.965Z,12.70
2022-10-02T12:51:39.806Z,12.68
2022-10-02T12:54:27.511Z,12.69
2022-10-02T12:57:42.803Z,12.67
2022-10-02T13:00:19.242Z,12.67
2022-10-02T13:03:06.835Z,12.68
2022-10-02T13:06:11.747Z,12.63
2022-10-02T13:09:06.143Z,12.60
2022-10-02T13:11:59.536Z,12.57
2022-10-02T13:15:18.605Z,12.56
2022-10-02T13:18:15.394Z,12.51
2022-10-02T13:21:06.998Z,12.48
2022-10-02T13:24:06.878Z,12.36
2022-10-02T13:26:35.947Z,12.25
2022-10-02T13:29:12.238Z,12.42
2022-10-02T13:32:08.958Z,12.49
2022-10-02T13:35:00.113Z,12.37
2022-10-02T13:37:56.084Z,12.41
2022-10-02T13:40:45.529Z,12.40
2022-10-02T13:43:45.857Z,12.41
2022-10-02T13:46:36.656Z,12.37
2022-10-02T13:49:30.019Z,12.36
2022-10-02T13:52:09.729Z,12.41
2022-10-02T13:54:58.605Z,12.37
2022-10-02T13:57:49.019Z,12.33
2022-10-02T14:00:40.691Z,12.26
2022-10-02T14:03:42.664Z,12.18
2022-10-02T14:06:26.505Z,12.20
2022-10-02T14:09:32.833Z,12.18
2022-10-02T14:12:26.787Z,12.15
2022-10-02T14:15:21.221Z,12.16
2022-10-02T14:18:06.399Z,12.12
2022-10-02T14:20:46.713Z,12.14
2022-10-02T14:24:06.409Z,12.14
2022-10-02T14:26:35.814Z,12.17
2022-10-02T14:29:18.399Z,12.15
2022-10-02T14:32:03.536Z,12.14
2022-10-02T14:34:45.042Z,12.09
2022-10-02T14:37:44.364Z,11.89
2022-10-02T14:40:19.347Z,11.99
2022-10-02T14:43:15.622Z,12.08
2022-10-02T14:46:11.925Z,12.13
2022-10-02T14:49:07.117Z,12.12
2022-10-02T14:51:52.756Z,12.09
2022-10-02T14:54:30.473Z,12.00
2022-10-02T14:57:12.809Z,12.08
2022-10-02T15:00:12.380Z,12.10
2022-10-02T15:02:51.529Z,12.08
2022-10-02T15:05:38.876Z,12.04
2022-10-02T15:08:31.003Z,12.10
2022-10-02T15:11:02.308Z,12.04
2022-10-02T15:13:44.406Z,12.06
2022-10-02T15:16:53.350Z,12.03
2022-10-02T15:19:32.255Z,11.90
2022-10-02T15:22:15.581Z,12.06
2022-10-02T15:24:53.698Z,12.12
2022-10-02T15:27:55.508Z,11.91
2022-10-02T15:30:27.660Z,11.81
2022-10-02T15:33:25.181Z,11.89
2022-10-02T15:36:13.060Z,12.04
2022-10-02T15:39:14.027Z,11.81
2022-10-02T15:42:03.990Z,11.51
2022-10-02T15:44:46.882Z,11.85
2022-10-02T15:47:28.623Z,12.08
2022-10-02T15:50:30.208Z,12.21
2022-10-02T15:53:37.515Z,12.25
2022-10-02T15:56:32.698Z,12.43
2022-10-02T15:59:40.469Z,12.47
2022-10-02T16:02:55.139Z,12.63
2022-10-02T16:05:44.960Z,12.31
2022-10-02T16:08:35.847Z,12.52
2022-10-02T16:11:35.695Z,12.55
2022-10-02T16:14:15.048Z,12.48
2022-10-02T16:17:17.794Z,12.67
2022-10-02T16:20:03.516Z,12.70
2022-10-02T16:22:50.859Z,12.65
2022-10-02T16:25:32.524Z,12.71
2022-10-02T16:28:40.358Z,12.77
2022-10-02T16:31:24.071Z,12.90
2022-10-02T16:34:21.237Z,13.22
2022-10-02T16:36:59.167Z,13.39
2022-10-02T16:39:52.856Z,13.56
2022-10-02T16:42:58.769Z,13.69
2022-10-02T16:45:29.295Z,13.79
2022-10-02T16:48:15.364Z,13.84
2022-10-02T16:51:13.609Z,13.89
2022-10-02T16:53:52.130Z,13.97
2022-10-02T16:56:58.312Z,13.93
2022-10-02T16:59:53.396Z,14.02
2022-10-02T17:02:45.860Z,14.20
2022-10-02T17:05:19.364Z,14.35
2022-10-02T17:08:10.324Z,14.48
2022-10-02T17:11:03.080Z,14.63
2022-10-02T17:13:44.107Z,14.75
2022-10-02T17:16:21.715Z,14.88
2022-10-02T17:19:14.815Z,15.01
2022-10-02T17:22:03.546Z,15.16
2022-10-02T17:24:35.412Z,15.26
2022-10-02T17:27:15.747Z,15.36
2022-10-02T17:30:00.057Z,15.53
2022-10-02T17:32:39.208Z,15.61
2022-10-02T17:35:40.530Z,15.67
2022-10-02T17:38:41.385Z,15.82
2022-10-02T17:41:29.666Z,15.92
2022-10-02T17:44:10.185Z,16.19
2022-10-02T17:46:57.730Z,16.49
2022-10-02T17:49:42.376Z,16.62
2022-10-02T17:52:57.026Z,16.58
2022-10-02T17:56:18.748Z,16.82
2022-10-02T17:59:14.321Z,17.19
2022-10-02T18:02:07.255Z,17.47
2022-10-02T18:04:45.847Z,17.54
2022-10-02T18:07:44.201Z,17.90
2022-10-02T18:10:42.975Z,17.92
2022-10-02T18:13:47.140Z,18.13
2022-10-02T18:16:29.151Z,18.34
2022-10-02T18:19:20.813Z,18.48
2022-10-02T18:22:03.082Z,18.60
2022-10-02T18:25:15.606Z,18.75
2022-10-02T18:28:06.973Z,18.97
2022-10-02T18:30:57.816Z,19.23
2022-10-02T18:33:55.120Z,19.44
2022-10-02T18:37:17.990Z,19.55
2022-10-02T18:40:11.160Z,19.69
2022-10-02T18:42:51.485Z,19.86
2022-10-02T18:45:58.021Z,20.04
2022-10-02T18:48:56.445Z,20.49
2022-10-02T18:51:49.722Z,20.56
2022-10-02T18:54:51.681Z,20.64
2022-10-02T18:57:56.925Z,21.02
2022-10-02T19:00:49.714Z,21.33
2022-10-02T19:21:27.962Z,23.09
2022-10-02T19:24:31.145Z,23.13
2022-10-02T19:27:46.231Z,23.70
2022-10-02T19:30:47.486Z,23.58
2022-10-02T19:33:25.547Z,23.95
2022-10-02T19:35:56.745Z,24.19
2022-10-02T19:38:31.960Z,23.68
2022-10-02T19:41:03.069Z,23.71
2022-10-02T19:43:35.458Z,23.96
2022-10-02T19:46:13.395Z,23.96
2022-10-02T19:48:43.452Z,23.69
2022-10-02T19:51:22.374Z,23.93
2022-10-02T19:53:54.498Z,24.10
2022-10-02T19:56:40.653Z,24.10
2022-10-02T19:59:20.647Z,24.30
2022-10-02T20:01:59.486Z,24.41
2022-10-02T20:04:32.953Z,24.61
2022-10-02T20:07:02.956Z,24.78
2022-10-02T20:09:55.466Z,24.82
2022-10-02T20:12:33.263Z,24.81
2022-10-02T20:15:40.827Z,24.83
2022-10-02T20:18:12.309Z,24.95
2022-10-02T20:20:45.553Z,25.03
2022-10-02T20:23:23.136Z,24.99
2022-10-02T20:25:59.469Z,25.08
2022-10-02T20:28:48.326Z,25.26
2022-10-02T20:31:40.477Z,25.94
2022-10-02T20:34:36.090Z,26.15
2022-10-02T20:37:12.968Z,25.83
2022-10-02T20:39:51.353Z,25.87
2022-10-02T20:42:54.233Z,25.98
2022-10-02T20:45:33.988Z,26.76
2022-10-02T20:49:07.087Z,26.76
2022-10-02T20:51:58.139Z,26.52
2022-10-02T20:54:37.396Z,27.10
2022-10-02T20:58:07.057Z,27.43
2022-10-02T21:00:50.119Z,27.77
2022-10-02T21:03:31.346Z,28.01
2022-10-02T21:06:37.979Z,27.84
2022-10-02T21:09:41.805Z,28.45
2022-10-02T21:12:36.349Z,28.13
2022-10-02T21:15:29.883Z,27.99
2022-10-02T21:18:26.488Z,27.79
2022-10-02T21:21:17.893Z,27.92
2022-10-02T21:24:21.950Z,27.48
2022-10-02T21:27:16.514Z,28.07
2022-10-02T21:30:11.137Z,27.85
2022-10-02T21:32:56.877Z,28.15
2022-10-02T21:35:35.924Z,28.36
2022-10-02T21:38:28.990Z,27.97
2022-10-02T21:41:08.034Z,28.24
2022-10-02T21:44:05.083Z,28.56
2022-10-02T21:46:41.100Z,28.75
2022-10-02T21:49:25.463Z,28.69
2022-10-02T21:52:22.003Z,28.83
2022-10-02T21:55:09.238Z,28.77
2022-10-02T21:57:50.774Z,28.90
2022-10-02T22:00:32.109Z,29.16
2022-10-02T22:03:07.142Z,28.75
2022-10-02T22:05:54.535Z,28.78
2022-10-02T22:09:03.494Z,29.07
2022-10-02T22:11:50.436Z,29.22
2022-10-02T22:14:43.875Z,29.22
2022-10-02T22:17:27.052Z,29.53
2022-10-02T22:20:33.092Z,29.87
2022-10-02T22:23:26.695Z,29.23
2022-10-02T22:26:13.790Z,29.39
2022-10-02T22:29:10.318Z,29.44
2022-10-02T22:32:20.619Z,29.01
2022-10-02T22:35:20.389Z,28.91
2022-10-02T22:38:14.791Z,28.85
2022-10-02T22:40:53.279Z,28.28
2022-10-02T22:43:59.631Z,28.14
2022-10-02T22:46:39.028Z,27.96
2022-10-02T22:49:26.211Z,28.02
2022-10-02T22:52:12.163Z,28.09
2022-10-02T22:54:41.265Z,27.70
2022-10-02T22:57:21.589Z,27.64
2022-10-02T23:00:03.671Z,27.29
2022-10-02T23:02:34.295Z,26.98
2022-10-02T23:05:20.053Z,27.07
2022-10-02T23:07:56.593Z,27.39
2022-10-02T23:10:47.619Z,27.58
2022-10-02T23:13:25.247Z,27.26
2022-10-02T23:16:23.786Z,27.14
2022-10-02T23:19:35.035Z,27.15
2022-10-02T23:22:10.082Z,27.37
2022-10-02T23:25:01.261Z,27.74
2022-10-02T23:27:58.353Z,27.67
2022-10-02T23:30:31.024Z,27.56
2022-10-02T23:33:27.029Z,27.45
2022-10-02T23:36:46.446Z,27.78
2022-10-02T23:39:23.813Z,28.18
2022-10-02T23:41:58.581Z,28.32
2022-10-02T23:44:33.041Z,28.20
2022-10-02T23:47:30.062Z,28.41
2022-10-02T23:50:01.881Z,28.13
2022-10-02T23:52:37.123Z,28.07
2022-10-02T23:55:24.264Z,28.01
2022-10-02T23:58:21.067Z,28.16
